Time;durP1;ratioP1;P1;durP2;ratioP2;P2;SDS_P1;SDS_P2;PMS_P1;PMS_P2;Temp;Humidity;BMP_temperature;BMP_pressure;BME280_temperature;BME280_humidity;BME280_pressure;Samples;Min_cycle;Max_cycle;Signal;HPM_P1;HPM_P2
2023/04/01 00:02:14;;;;;;;1.63;0.70;;;;;;;6.77;100.00;95421.75;5079424;28;20216;-82
2023/04/01 00:04:41;;;;;;;0.70;0.70;;;;;;;6.72;100.00;95408.19;5081858;28;20252;-84
2023/04/01 00:07:08;;;;;;;2.10;0.80;;;;;;;6.69;100.00;95373.81;5082563;28;20216;-82
2023/04/01 00:09:35;;;;;;;1.43;1.07;;;;;;;6.58;100.00;95387.16;5078506;28;20814;-83
2023/04/01 00:12:04;;;;;;;586.67;519.60;;;;;;;6.71;100.00;95429.91;5075119;28;20220;-83
2023/04/01 00:14:31;;;;;;;342.33;276.40;;;;;;;6.76;100.00;95438.06;5086727;28;20271;-83
2023/04/01 00:16:58;;;;;;;53.37;42.43;;;;;;;6.82;100.00;95411.16;5076913;28;20300;-83
2023/04/01 00:19:26;;;;;;;;;;;;;;;6.72;100.00;95404.72;5084675;28;20224;-82
2023/04/01 00:21:53;;;;;;;;;;;;;;;6.71;100.00;95408.44;5087015;28;19976;-83
2023/04/01 00:24:20;;;;;;;;;;;;;;;6.72;100.00;95410.09;5093849;28;19977;-83
2023/04/01 00:26:47;;;;;;;;;;;;;;;6.78;100.00;95417.22;5078421;28;19932;-83
2023/04/01 00:29:16;;;;;;;;;;;;;;;6.83;100.00;95412.78;5083880;28;19963;-83
2023/04/01 00:31:42;;;;;;;;;;;;;;;6.78;100.00;95411.84;5087102;28;19972;-83
2023/04/01 00:34:09;;;;;;;;;;;;;;;6.75;100.00;95405.06;5088465;28;19929;-82
2023/04/01 00:36:37;;;;;;;;;;;;;;;6.67;100.00;95394.66;5082207;28;19928;-83
2023/04/01 00:39:03;;;;;;;;;;;;;;;6.64;100.00;95387.06;5090909;28;19924;-84
2023/04/01 00:41:30;;;;;;;;;;;;;;;6.65;100.00;95387.88;5090441;28;19931;-83
2023/04/01 00:44:11;;;;;;;;;;;;;;;6.72;100.00;95373.31;5085843;28;19925;-83
2023/04/01 00:46:40;;;;;;;;;;;;;;;6.70;100.00;95367.41;5082745;28;20457;-84
2023/04/01 00:49:06;;;;;;;;;;;;;;;6.62;100.00;95373.09;5075216;28;19920;-84
2023/04/01 00:51:35;;;;;;;;;;;;;;;6.61;100.00;95374.13;5086426;28;20038;-84
2023/04/01 00:54:03;;;;;;;55.60;34.33;;;;;;;6.65;100.00;95372.59;5087287;28;20435;-84
2023/04/01 00:56:31;;;;;;;;;;;;;;;6.70;100.00;95362.03;5086744;28;20430;-84
2023/04/01 00:59:01;;;;;;;;;;;;;;;6.65;100.00;95383.34;5083298;28;19926;-84
2023/04/01 01:01:28;;;;;;;;;;;;;;;6.59;100.00;95389.63;5075408;28;19920;-83
2023/04/01 01:03:56;;;;;;;;;;;;;;;6.62;100.00;95380.31;5088542;28;20315;-83
2023/04/01 01:06:34;;;;;;;;;;;;;;;6.67;100.00;95367.03;5088639;28;19954;-84
2023/04/01 01:09:11;;;;;;;;;;;;;;;6.67;100.00;95361.66;5081502;28;20052;-83
2023/04/01 01:11:40;;;;;;;;;;;;;;;6.63;100.00;95353.28;5082509;28;19960;-83
2023/04/01 01:14:13;;;;;;;;;;;;;;;6.58;100.00;95361.16;5087832;28;19990;-84
2023/04/01 01:16:44;;;;;;;;;;;;;;;6.54;100.00;95370.72;5092295;28;19956;-83
2023/04/01 01:19:20;;;;;;;;;;;;;;;6.58;100.00;95358.50;5072179;28;19956;-83
2023/04/01 01:22:04;;;;;;;;;;;;;;;6.67;100.00;95349.06;5088464;28;20008;-83
2023/04/01 01:24:42;;;;;;;;;;;;;;;6.67;100.00;95350.94;5088751;28;20081;-83
2023/04/01 01:27:11;;;;;;;;;;;;;;;6.66;100.00;95358.16;5084227;28;19920;-83
2023/04/01 01:30:01;;;;;;;;;;;;;;;6.68;100.00;95360.63;5084687;28;20004;-84
2023/04/01 01:32:40;;;;;;;;;;;;;;;6.67;100.00;95364.34;5086995;28;19963;-84
2023/04/01 01:35:21;;;;;;;;;;;;;;;6.66;100.00;95360.84;5082599;28;19960;-84
2023/04/01 01:37:51;;;;;;;;;;;;;;;6.57;100.00;95354.16;5080091;28;19927;-82
2023/04/01 01:40:19;;;;;;;31.50;30.00;;;;;;;6.56;100.00;95363.25;5070816;28;20443;-84
2023/04/01 01:42:48;;;;;;;;;;;;;;;6.60;100.00;95363.63;5084944;28;20499;-83
2023/04/01 01:45:17;;;;;;;;;;;;;;;6.61;100.00;95339.25;5079933;28;19965;-81
2023/04/01 01:47:46;;;;;;;;;;;;;;;6.57;100.00;95326.53;5075762;28;19925;-84
2023/04/01 01:50:14;;;;;;;;;;;;;;;6.50;100.00;95326.63;5098437;28;19980;-84
2023/04/01 01:52:42;;;;;;;;;;;;;;;6.53;100.00;95350.31;5084721;28;19980;-83
2023/04/01 01:55:25;;;;;;;;;;;;;;;6.53;100.00;95353.00;5086306;28;19924;-83
2023/04/01 01:57:52;;;;;;;;;;;;;;;6.55;100.00;95339.38;5071907;28;19928;-84
2023/04/01 02:00:20;;;;;;;;;;;;;;;6.51;100.00;95340.88;5078996;28;19976;-84
2023/04/01 02:02:49;;;;;;;;;;;;;;;6.46;100.00;95331.63;5074467;28;19924;-84
2023/04/01 02:05:18;;;;;;;;;;;;;;;6.43;100.00;95332.09;5072756;28;19942;-83
2023/04/01 02:07:51;;;;;;;;;;;;;;;6.51;100.00;95346.22;5084568;28;19920;-83
2023/04/01 02:10:19;;;;;;;;;;;;;;;6.45;100.00;95337.25;5085579;28;19932;-84
2023/04/01 02:12:47;;;;;;;;;;;;;;;6.45;100.00;95342.59;5083133;28;19920;-81
2023/04/01 02:15:15;;;;;;;;;;;;;;;6.45;100.00;95331.88;5082945;28;19924;-84
2023/04/01 02:17:44;;;;;;;;;;;;;;;6.38;100.00;95350.72;5082973;28;19936;-84
2023/04/01 02:20:14;;;;;;;;;;;;;;;6.37;100.00;95359.03;5083103;28;19920;-83
2023/04/01 02:22:44;;;;;;;;;;;;;;;6.39;100.00;95322.06;5085466;28;19969;-84
2023/04/01 02:25:14;;;;;;;;;;;;;;;6.37;100.00;95324.16;5104349;28;19932;-84
2023/04/01 02:27:41;;;;;;;;;;;;;;;6.39;100.00;95344.31;5092553;28;19987;-83
2023/04/01 02:30:08;;;;;;;;;;;;;;;6.37;100.00;95332.22;5089677;28;19920;-83
2023/04/01 02:32:37;;;;;;;;;;;;;;;6.39;100.00;95338.13;5099433;28;19921;-84
2023/04/01 02:35:06;;;;;;;;;;;;;;;6.35;100.00;95339.66;5083886;28;20005;-83
2023/04/01 02:37:32;;;;;;;;;;;;;;;6.40;100.00;95321.00;5095314;28;19993;-84
2023/04/01 02:40:00;;;;;;;;;;;;;;;6.34;100.00;95322.75;5080676;28;19928;-84
2023/04/01 02:42:28;;;;;;;;;;;;;;;6.38;100.00;95347.25;5103924;28;19951;-84
2023/04/01 02:44:55;;;;;;;;;;;;;;;6.42;100.00;95343.06;5090392;28;20018;-84
2023/04/01 02:47:22;;;;;;;;;;;;;;;6.53;100.00;95322.69;5090134;28;20063;-83
2023/04/01 02:49:48;;;;;;;;;;;;;;;6.49;100.00;95322.31;5082546;28;19927;-84
2023/04/01 02:52:15;;;;;;;;;;;;;;;6.44;100.00;95346.34;5080301;28;19935;-84
2023/04/01 02:54:42;;;;;;;;;;;;;;;6.40;100.00;95340.59;5090590;28;19927;-83
2023/04/01 02:57:09;;;;;;;;;;;;;;;6.46;100.00;95328.94;5075749;28;19924;-83
2023/04/01 02:59:37;;;;;;;;;;;;;;;6.43;100.00;95325.94;5083597;28;19927;-82
2023/04/01 03:02:04;;;;;;;;;;;;;;;6.34;100.00;95330.78;5085921;28;19969;-83
2023/04/01 03:04:30;;;;;;;;;;;;;;;6.36;100.00;95319.84;5089244;28;19959;-84
2023/04/01 03:06:57;;;;;;;;;;;;;;;6.38;100.00;95331.97;5079567;28;19927;-83
2023/04/01 03:09:24;;;;;;;;;;;;;;;6.40;100.00;95326.38;5085671;28;19927;-83
2023/04/01 03:11:50;;;;;;;;;;;;;;;6.33;100.00;95320.28;5101145;28;19971;-83
2023/04/01 03:14:17;;;;;;;;;;;;;;;6.35;100.00;95329.75;5083721;28;19924;-84
2023/04/01 03:16:45;;;;;;;;;;;;;;;6.33;100.00;95325.66;5089915;28;19963;-84
2023/04/01 03:19:12;;;;;;;;;;;;;;;6.34;100.00;95311.22;5057845;28;19920;-84
2023/04/01 03:21:39;;;;;;;;;;;;;;;6.31;100.00;95308.97;5107467;28;19931;-83
2023/04/01 03:24:07;;;;;;;;;;;;;;;6.26;100.00;95317.72;5083767;28;19928;-84
2023/04/01 03:26:34;;;;;;;;;;;;;;;6.28;100.00;95315.63;5080751;28;19924;-84
2023/04/01 03:29:02;;;;;;;;;;;;;;;6.28;100.00;95301.41;5083479;28;19924;-84
2023/04/01 03:31:28;;;;;;;;;;;;;;;6.27;100.00;95321.22;5078291;28;19939;-83
2023/04/01 03:33:58;;;;;;;;;;;;;;;6.26;100.00;95315.03;5080662;28;19931;-82
2023/04/01 03:36:25;;;;;;;;;;;;;;;6.18;100.00;95320.72;5080570;28;20007;-83
2023/04/01 03:38:51;;;;;;;;;;;;;;;6.16;100.00;95320.13;5081740;28;19926;-83
2023/04/01 03:41:25;;;;;;;;;;;;;;;6.20;100.00;95317.81;5074315;28;19925;-84
2023/04/01 03:43:54;;;;;;;;;;;;;;;6.23;100.00;95311.97;5083892;28;19963;-83
2023/04/01 03:46:21;;;;;;;;;;;;;;;6.20;100.00;95305.25;5090189;28;19920;-84
2023/04/01 03:48:48;;;;;;;;;;;;;;;6.13;100.00;95315.22;5092301;28;19949;-84
2023/04/01 03:51:16;;;;;;;;;;;;;;;6.14;100.00;95322.22;5075950;28;19921;-83
2023/04/01 03:53:43;;;;;;;;;;;;;;;6.14;100.00;95332.09;5080256;28;19920;-81
2023/04/01 03:56:10;;;;;;;;;;;;;;;6.17;100.00;95331.66;5083214;28;19924;-84
2023/04/01 03:58:38;;;;;;;;;;;;;;;6.20;100.00;95323.19;5086970;28;19931;-85
2023/04/01 04:01:14;;;;;;;;;;;;;;;6.23;100.00;95315.47;5080725;28;19927;-84
2023/04/01 04:03:41;;;;;;;;;;;;;;;6.25;100.00;95307.22;5092291;28;19926;-83
2023/04/01 04:06:11;;;;;;;;;;;;;;;6.27;100.00;95305.13;5093247;28;19920;-82
2023/04/01 04:08:40;;;;;;;;;;;;;;;6.25;100.00;95307.22;5094645;28;19951;-84
2023/04/01 04:11:06;;;;;;;;;;;;;;;6.27;100.00;95283.69;5090284;28;19920;-83
2023/04/01 04:13:34;;;;;;;;;;;;;;;6.29;100.00;95277.06;5083070;28;19920;-83
2023/04/01 04:16:01;;;;;;;;;;;;;;;6.27;100.00;95292.56;5091847;28;19927;-83
2023/04/01 04:18:29;;;;;;;;;;;;;;;6.17;100.00;95302.19;5091984;28;19920;-83
2023/04/01 04:20:56;;;;;;;;;;;;;;;6.17;100.00;95323.63;5088359;28;19921;-83
2023/04/01 04:23:23;;;;;;;;;;;;;;;6.24;100.00;95327.84;5082257;28;19963;-83
2023/04/01 04:25:59;;;;;;;;;;;;;;;6.25;100.00;95313.41;5089281;28;19927;-83
2023/04/01 04:28:28;;;;;;;;;;;;;;;6.21;100.00;95284.63;5073749;28;19931;-84
2023/04/01 04:30:56;;;;;;;;;;;;;;;6.21;100.00;95306.06;5091692;28;19980;-83
2023/04/01 04:33:23;;;;;;;;;;;;;;;6.24;100.00;95319.81;5087575;28;19924;-82
2023/04/01 04:35:50;;;;;;;;;;;;;;;6.27;100.00;95315.84;5093936;28;19920;-84
2023/04/01 04:38:17;;;;;;;;;;;;;;;6.27;100.00;95303.28;5081528;28;19920;-84
2023/04/01 04:40:44;;;;;;;;;;;;;;;6.22;100.00;95307.66;5088740;28;19924;-81
2023/04/01 04:43:14;;;;;;;;;;;;;;;6.25;100.00;95309.91;5084763;28;19920;-83
2023/04/01 04:45:41;;;;;;;;;;;;;;;6.28;100.00;95296.88;5080153;28;19919;-84
2023/04/01 04:48:08;;;;;;;;;;;;;;;6.32;100.00;95302.56;5085178;28;19925;-83
2023/04/01 04:50:36;;;;;;;;;;;;;;;6.29;100.00;95313.78;5090567;28;19928;-82
2023/04/01 04:53:02;;;;;;;;;;;;;;;6.25;100.00;95315.25;5090960;28;19983;-84
2023/04/01 04:55:30;;;;;;;;;;;;;;;6.24;100.00;95327.03;5089941;28;19928;-84
2023/04/01 04:58:21;;;;;;;;;;;;;;;6.23;100.00;95338.78;5076029;28;19927;-83
2023/04/01 05:00:48;;;;;;;;;;;;;;;6.24;100.00;95343.09;5076890;28;19927;-83
2023/04/01 05:03:23;;;;;;;;;;;;;;;6.29;100.00;95349.44;5077602;28;19920;-84
2023/04/01 05:05:51;;;;;;;;;;;;;;;6.31;100.00;95360.72;5081408;28;19969;-84
2023/04/01 05:08:18;;;;;;;;;;;;;;;6.33;100.00;95368.56;5085842;28;19935;-83
2023/04/01 05:10:45;;;;;;;;;;;;;;;6.35;100.00;95355.75;5081933;28;19963;-84
2023/04/01 05:13:12;;;;;;;;;;;;;;;6.36;100.00;95370.78;5097207;28;20007;-84
2023/04/01 05:15:41;;;;;;;;;;;;;;;6.37;100.00;95380.47;5081234;28;19920;-84
2023/04/01 05:18:08;;;;;;;;;;;;;;;6.36;100.00;95394.91;5087451;28;19928;-83
2023/04/01 05:20:35;;;;;;;;;;;;;;;6.42;100.00;95388.63;5083029;28;20213;-83
2023/04/01 05:23:02;;;;;;;;;;;;;;;6.40;100.00;95380.00;5083864;28;19920;-84
2023/04/01 05:25:29;;;;;;;;;;;;;;;6.36;100.00;95385.00;5082399;28;19963;-84
2023/04/01 05:27:56;;;;;;;;;;;;;;;6.35;100.00;95374.50;5082973;28;19924;-82
2023/04/01 05:30:23;;;;;;;;;;;;;;;6.33;100.00;95373.91;5085481;28;19926;-85
2023/04/01 05:33:13;;;;;;;;;;;;;;;6.35;100.00;95367.28;5086160;28;19920;-85
2023/04/01 05:35:40;;;;;;;;;;;;;;;6.38;100.00;95369.50;5089587;28;20001;-84
2023/04/01 05:38:08;;;;;;;;;;;;;;;6.37;100.00;95367.06;5087333;28;20025;-83
2023/04/01 05:40:35;;;;;;;;;;;;;;;6.36;100.00;95366.25;5078346;28;19927;-85
2023/04/01 05:43:02;;;;;;;;;;;;;;;6.36;100.00;95360.88;5086604;28;19969;-84
2023/04/01 05:45:29;;;;;;;;;;;;;;;6.32;100.00;95372.28;5084353;28;19924;-84
2023/04/01 05:48:20;;;;;;;;;;;;;;;6.35;100.00;95387.91;5085700;28;19927;-83
2023/04/01 05:50:46;;;;;;;;;;;;;;;6.35;100.00;95398.63;5087273;28;19924;-86
2023/04/01 05:53:14;;;;;;;;;;;;;;;6.38;100.00;95398.19;5099872;28;19924;-84
2023/04/01 05:55:43;;;;;;;;;;;;;;;6.38;100.00;95395.53;5089404;28;20010;-84
2023/04/01 05:58:10;;;;;;;;;;;;;;;6.35;100.00;95387.91;5086069;28;20211;-83
2023/04/01 06:00:39;;;;;;;;;;;;;;;6.39;100.00;95379.19;5085201;28;19927;-85
2023/04/01 06:03:05;;;;;;;;;;;;;;;6.42;100.00;95375.22;5085133;28;19930;-85
2023/04/01 06:05:38;;;;;;;;;;;;;;;6.44;100.00;95370.47;5088269;28;20258;-85
2023/04/01 06:08:07;;;;;;;;;;;;;;;6.45;100.00;95372.09;5074209;28;19931;-85
2023/04/01 06:10:41;;;;;;;;;;;;;;;6.51;100.00;95362.31;5085931;28;19931;-85
2023/04/01 06:13:12;;;;;;;;;;;;;;;6.47;100.00;95359.25;5083261;28;19921;-85
2023/04/01 06:15:41;;;;;;;;;;;;;;;6.51;100.00;95384.59;5083188;28;19969;-83
2023/04/01 06:18:39;;;;;;;;;;;;;;;6.52;100.00;95394.28;5087276;28;19920;-84
2023/04/01 06:21:11;;;;;;;;;;;;;;;6.63;100.00;95369.38;5089603;28;19920;-84
2023/04/01 06:23:56;;;;;;;;;;;;;;;6.60;100.00;95377.03;5085323;28;19946;-84
2023/04/01 06:26:30;;;;;;;;;;;;;;;6.59;100.00;95378.91;5082561;28;19927;-83
2023/04/01 06:29:02;;;;;;;;;;;;;;;6.64;100.00;95376.34;5062604;28;19920;-85
2023/04/01 06:31:44;;;;;;;;;;;;;;;6.68;100.00;95385.56;5082285;28;19927;-84
2023/04/01 06:34:35;;;;;;;;;;;;;;;6.70;100.00;95390.72;5081881;28;19970;-84
2023/04/01 06:37:11;;;;;;;;;;;;;;;6.74;100.00;95390.00;5078810;28;19920;-84
2023/04/01 06:39:46;;;;;;;;;;;;;;;6.78;100.00;95391.22;5084337;28;19920;-83
2023/04/01 06:42:34;;;;;;;;;;;;;;;6.79;100.00;95383.97;5084739;28;19920;-82
2023/04/01 06:45:16;;;;;;;;;;;;;;;6.84;100.00;95373.34;5089238;28;19930;-84
2023/04/01 06:48:10;;;;;;;;;;;;;;;6.86;100.00;95389.22;5087648;28;19932;-85
2023/04/01 06:50:58;;;;;;;;;;;;;;;6.91;100.00;95402.75;5076793;28;19969;-84
2023/04/01 06:53:48;;;;;;;;;;;;;;;6.98;100.00;95398.94;5085416;28;19927;-85
2023/04/01 06:56:33;;;;;;;;;;;;;;;7.09;100.00;95410.75;5081963;28;19927;-84
2023/04/01 06:59:16;;;;;;;;;;;;;;;7.06;100.00;95416.59;5084336;28;19927;-84
2023/04/01 07:01:45;;;;;;;;;;;;;;;7.07;100.00;95418.19;5081162;28;19927;-85
2023/04/01 07:04:14;;;;;;;;;;;;;;;7.11;100.00;95419.38;5081592;28;19924;-83
2023/04/01 07:06:44;;;;;;;;;;;;;;;7.16;100.00;95411.44;5097639;28;19920;-85
2023/04/01 07:09:14;;;;;;;;;;;;;;;7.15;100.00;95409.81;5089529;28;19927;-84
2023/04/01 07:12:02;;;;;;;;;;;;;;;7.13;100.00;95406.56;5085177;28;19931;-85
2023/04/01 07:15:05;;;;;;;;;;;;;;;7.12;100.00;95404.91;5087136;28;20061;-84
2023/04/01 07:17:35;;;;;;;;;;;;;;;7.17;100.00;95408.53;5087875;28;19928;-84
2023/04/01 07:20:04;;;;;;;;;;;;;;;7.23;100.00;95412.16;5106853;28;19924;-83
2023/04/01 07:22:33;;;;;;;;;;;;;;;7.23;100.00;95407.59;5080677;28;19920;-83
2023/04/01 07:25:21;;;;;;;;;;;;;;;7.30;100.00;95404.00;5093711;28;19975;-82
2023/04/01 07:28:01;;;;;;;;;;;;;;;7.26;100.00;95394.75;5092342;28;19931;-83
2023/04/01 07:30:34;;;;;;;;;;;;;;;7.25;100.00;95404.69;5092144;28;19959;-83
2023/04/01 07:33:05;;;;;;;;;;;;;;;7.29;100.00;95410.41;5088229;28;19927;-84
2023/04/01 07:35:38;;;;;;;;;;;;;;;7.38;100.00;95406.34;5089693;28;19920;-85
2023/04/01 07:38:12;;;;;;;;;;;;;;;7.45;100.00;95391.75;5083730;28;19926;-85
2023/04/01 07:40:47;;;;;;;;;;;;;;;7.53;100.00;95406.69;5087051;28;19927;-84
2023/04/01 07:43:47;;;;;;;;;;;;;;;7.56;100.00;95406.22;5093312;28;19920;-83
2023/04/01 07:46:44;;;;;;;;;;;;;;;7.50;100.00;95432.13;5011138;28;19922;-82
2023/04/01 07:49:15;;;;;;;;;;;;;;;7.56;100.00;95420.47;5011491;28;20020;-84
2023/04/01 07:51:45;;;;;;;;;;;;;;;7.57;100.00;95419.41;5072383;28;19926;-83
2023/04/01 07:54:17;;;;;;;;;;;;;;;7.62;100.00;95425.94;5086308;28;19920;-84
2023/04/01 07:56:50;;;;;;;;;;;;;;;7.66;100.00;95416.34;5084403;28;19920;-82
2023/04/01 07:59:27;;;;;;;;;;;;;;;7.67;100.00;95429.56;5078331;28;19948;-84
2023/04/01 08:02:06;;;;;;;;;;;;;;;7.74;100.00;95429.47;5091189;28;19951;-84
2023/04/01 08:04:43;;;;;;;;;;;;;;;7.76;100.00;95432.72;5089346;28;19969;-83
2023/04/01 08:07:14;;;;;;;;;;;;;;;7.77;100.00;95445.91;5092862;28;19920;-83
2023/04/01 08:09:56;;;;;;;;;;;;;;;7.72;100.00;95461.13;5083285;28;19927;-82
2023/04/01 08:12:49;;;;;;;;;;;;;;;7.71;100.00;95438.81;5074827;28;19935;-82
2023/04/01 08:15:40;;;;;;;;;;;;;;;7.77;100.00;95428.97;5077912;28;20006;-83
2023/04/01 08:18:18;;;;;;;;;;;;;;;7.78;100.00;95427.94;5075119;28;19924;-84
2023/04/01 08:20:47;;;;;;;;;;;;;;;7.73;100.00;95434.03;5076459;28;19928;-83
2023/04/01 08:23:15;;;;;;;;;;;;;;;7.76;100.00;95441.59;5080942;28;19933;-84
2023/04/01 08:25:45;;;;;;;;;;;;;;;7.86;100.00;95432.94;5081237;28;19920;-83
2023/04/01 08:28:17;;;;;;;;;;;;;;;7.95;100.00;95437.72;5077939;28;19920;-83
2023/04/01 08:30:44;;;;;;;;;;;;;;;8.02;100.00;95442.97;5077560;28;19930;-84
2023/04/01 08:33:15;;;;;;;;;;;;;;;8.13;100.00;95430.56;5071589;28;19924;-84
2023/04/01 08:35:44;;;;;;;;;;;;;;;8.21;100.00;95427.50;5075139;28;19928;-83
2023/04/01 08:38:13;;;;;;;;;;;;;;;8.29;100.00;95432.50;5094687;28;19928;-80
2023/04/01 08:40:54;;;;;;;;;;;;;;;8.31;100.00;95420.50;5079258;28;19928;-84
2023/04/01 08:43:28;;;;;;;;;;;;;;;8.35;100.00;95418.94;5084804;28;19928;-82
2023/04/01 08:46:12;;;;;;;348.20;284.38;;;;;;;8.40;100.00;95412.88;5084116;28;20305;-83
2023/04/01 08:49:14;;;;;;;230.87;142.17;;;;;;;8.39;100.00;95418.47;5081392;28;20320;-82
2023/04/01 08:52:22;;;;;;;13.40;10.57;;;;;;;8.54;100.00;95414.22;5094647;28;20473;-83
2023/04/01 08:55:05;;;;;;;55.77;35.33;;;;;;;8.63;100.00;95422.72;5077536;28;20500;-84
2023/04/01 08:58:08;;;;;;;86.37;43.63;;;;;;;8.62;100.00;95423.78;5086460;28;20581;-83
2023/04/01 09:00:55;;;;;;;2.63;2.55;;;;;;;8.60;100.00;95401.66;5088522;28;20422;-83
2023/04/01 09:03:59;;;;;;;1.40;1.40;;;;;;;8.56;100.00;95397.84;5086193;28;20235;-83
2023/04/01 09:06:38;;;;;;;;;;;;;;;8.58;100.00;95410.00;5081329;28;20406;-83
2023/04/01 09:09:22;;;;;;;;;;;;;;;8.62;100.00;95415.69;5080292;28;19933;-84
2023/04/01 09:12:04;;;;;;;;;;;;;;;8.70;100.00;95418.00;5102161;28;19965;-84
2023/04/01 09:14:46;;;;;;;;;;;;;;;8.78;100.00;95414.91;5101655;28;19930;-80
2023/04/01 09:17:37;;;;;;;;;;;;;;;8.95;100.00;95410.38;5086297;28;19964;-81
2023/04/01 09:20:19;;;;;;;;;;;;;;;9.01;100.00;95425.59;5075022;28;19924;-82
2023/04/01 09:23:00;;;;;;;;;;;;;;;9.05;100.00;95432.09;5078309;28;19931;-82
2023/04/01 09:25:45;;;;;;;;;;;;;;;9.02;100.00;95427.19;5084203;28;20336;-84
2023/04/01 09:28:14;;;;;;;;;;;;;;;9.05;100.00;95424.03;5071767;28;20424;-83
2023/04/01 09:30:56;;;;;;;;;;;;;;;9.01;100.00;95435.53;5080861;28;19920;-83
2023/04/01 09:33:47;;;;;;;;;;;;;;;9.02;100.00;95421.81;5083964;28;19977;-83
2023/04/01 09:36:23;;;;;;;;;;;;;;;9.00;100.00;95431.22;5074938;28;19961;-83
2023/04/01 09:38:56;;;;;;;;;;;;;;;8.92;100.00;95445.06;5085640;28;19984;-82
2023/04/01 09:41:28;;;;;;;;;;;;;;;8.98;100.00;95439.53;5076012;28;20021;-82
2023/04/01 09:44:17;;;;;;;;;;;;;;;9.04;100.00;95446.63;5072193;28;20003;-83
2023/04/01 09:47:01;;;;;;;;;;;;;;;8.91;100.00;95460.41;5086921;28;20070;-84
2023/04/01 09:49:39;;;;;;;;;;;;;;;8.88;100.00;95447.41;5083048;28;19961;-84
2023/04/01 09:52:15;;;;;;;;;;;;;;;8.81;100.00;95448.63;5085097;28;19959;-83
2023/04/01 09:54:51;;;;;;;;;;;;;;;8.90;100.00;95460.63;5080334;28;20012;-83
2023/04/01 09:57:42;;;;;;;;;;;;;;;8.96;100.00;95457.78;5083697;28;20051;-85
2023/04/01 10:00:22;;;;;;;;;;;;;;;9.02;100.00;95454.13;5028027;28;20011;-85
2023/04/01 10:03:16;;;;;;;;;;;;;;;9.06;100.00;95455.28;5085303;28;19961;-83
2023/04/01 10:06:07;;;;;;;;;;;;;;;9.10;100.00;95450.25;5072833;28;19976;-82
2023/04/01 10:09:07;;;;;;;;;;;;;;;9.18;100.00;95449.84;5072061;28;19967;-82
2023/04/01 10:11:52;;;;;;;;;;;;;;;9.20;100.00;95449.56;5075148;28;20029;-83
2023/04/01 10:14:35;;;;;;;;;;;;;;;9.19;100.00;95450.63;5078500;28;19963;-82
2023/04/01 10:17:19;;;;;;;;;;;;;;;9.32;100.00;95447.63;5046460;28;19990;-82
2023/04/01 10:20:05;;;;;;;;;;;;;;;9.40;100.00;95444.53;5089687;28;19968;-82
2023/04/01 10:22:49;;;;;;;;;;;;;;;9.48;100.00;95449.53;5079125;28;19961;-82
2023/04/01 10:25:25;;;;;;;;;;;;;;;9.48;100.00;95446.81;5085921;28;19962;-82
2023/04/01 10:28:07;;;;;;;;;;;;;;;9.49;100.00;95443.06;5097824;28;19984;-82
2023/04/01 10:31:07;;;;;;;;;;;;;;;9.64;100.00;95432.53;5082444;28;19972;-81
2023/04/01 10:33:52;;;;;;;;;;;;;;;9.76;100.00;95427.06;5095271;28;19974;-82
2023/04/01 10:36:34;;;;;;;;;;;;;;;9.82;100.00;95423.34;5088855;28;20066;-82
2023/04/01 10:39:21;;;;;;;;;;;;;;;9.77;100.00;95434.91;5098198;28;19999;-82
2023/04/01 10:42:05;;;;;;;;;;;;;;;9.82;100.00;95431.44;5082764;28;20008;-82
2023/04/01 10:45:03;;;;;;;;;;;;;;;9.82;100.00;95426.88;5086557;28;20145;-82
2023/04/01 10:48:07;;;;;;;;;;;;;;;9.86;100.00;95427.19;5079167;28;19965;-82
2023/04/01 10:50:58;;;;;;;;;;;;;;;9.85;100.00;95434.47;5088980;28;19956;-82
2023/04/01 10:53:32;;;;;;;;;;;;;;;9.94;100.00;95428.66;5070294;28;19970;-82
2023/04/01 10:56:39;;;;;;;;;;;;;;;10.09;100.00;95432.38;5087652;28;19962;-82
2023/04/01 10:59:24;;;;;;;;;;;;;;;10.25;100.00;95425.31;5090770;28;19963;-82
2023/04/01 11:02:18;;;;;;;;;;;;;;;10.30;100.00;95424.56;5090889;28;19965;-82
2023/04/01 11:05:31;;;;;;;;;;;;;;;10.23;100.00;95422.06;5048783;28;20018;-82
2023/04/01 11:08:30;;;;;;;;;;;;;;;10.29;100.00;95410.28;5081781;28;20082;-82
2023/04/01 11:11:14;;;;;;;;;;;;;;;10.36;100.00;95399.28;5082114;28;20069;-82
2023/04/01 11:14:02;;;;;;;;;;;;;;;10.36;100.00;95391.19;5090195;28;20022;-82
2023/04/01 11:16:48;;;;;;;;;;;;;;;10.46;100.00;95400.19;5052643;28;20021;-82
2023/04/01 11:19:39;;;;;;;;;;;;;;;10.35;100.00;95398.47;5084520;28;19998;-82
2023/04/01 11:22:15;;;;;;;;;;;;;;;10.40;100.00;95395.00;5077373;28;19962;-82
2023/04/01 11:25:01;;;;;;;;;;;;;;;10.49;100.00;95398.88;5084955;28;20107;-82
2023/04/01 11:27:55;;;;;;;;;;;;;;;10.65;100.00;95394.47;5083504;28;19972;-82
2023/04/01 11:30:28;;;;;;;;;;;;;;;10.77;100.00;95395.16;5088521;28;19966;-82
2023/04/01 11:32:59;;;;;;;;;;;;;;;10.81;100.00;95394.38;5077174;28;19961;-82
2023/04/01 11:35:35;;;;;;;;;;;;;;;10.89;100.00;95398.50;5078691;28;19962;-82
2023/04/01 11:38:10;;;;;;;;;;;;;;;10.93;100.00;95396.94;5091503;28;19992;-82
2023/04/01 11:40:49;;;;;;;;;;;;;;;10.87;100.00;95401.47;5080778;28;19965;-82
2023/04/01 11:43:42;;;;;;;;;;;;;;;10.83;100.00;95405.75;5087863;28;19976;-83
2023/04/01 11:46:34;;;;;;;;;;;;;;;10.81;100.00;95386.28;5077282;28;19970;-82
2023/04/01 11:49:07;;;;;;;;;;;;;;;10.89;100.00;95393.91;5090486;28;19958;-82
2023/04/01 11:51:52;;;;;;;;;;;;;;;11.00;100.00;95389.44;5090186;28;20024;-82
2023/04/01 11:54:26;;;;;;;;;;;;;;;11.08;100.00;95396.25;5078716;28;20000;-82
2023/04/01 11:57:00;;;;;;;;;;;;;;;11.13;100.00;95389.03;5076374;28;19972;-82
2023/04/01 11:59:35;;;;;;;;;;;;;;;11.17;100.00;95392.84;5098561;28;20016;-82
2023/04/01 12:02:10;;;;;;;;;;;;;;;11.26;100.00;95385.88;5077364;28;20030;-82
2023/04/01 12:04:48;;;;;;;;;;;;;;;11.34;100.00;95374.59;5082839;28;20035;-83
2023/04/01 12:07:24;;;;;;;;;;;;;;;11.42;100.00;95367.09;5104990;28;19988;-82
2023/04/01 12:09:58;;;;;;;;;;;;;;;11.46;100.00;95360.91;5078865;28;19999;-82
2023/04/01 12:12:30;;;;;;;;;;;;;;;11.48;100.00;95349.84;5099390;28;19997;-82
2023/04/01 12:15:04;;;;;;;;;;;;;;;11.51;100.00;95352.00;5083854;28;20022;-82
2023/04/01 12:17:37;;;;;;;;;;;;;;;11.54;100.00;95355.03;5085080;28;19924;-82
2023/04/01 12:20:21;;;;;;;;;;;;;;;11.64;100.00;95352.38;5087942;28;19955;-82
2023/04/01 12:22:56;;;;;;;;;;;;;;;11.75;100.00;95347.88;5089648;28;19927;-82
2023/04/01 12:25:30;;;;;;;;;;;;;;;11.85;100.00;95352.53;5084600;28;19920;-82
2023/04/01 12:28:11;;;;;;;;;;;;;;;12.03;100.00;95335.84;5103144;28;19923;-82
2023/04/01 12:30:46;;;;;;;;;;;;;;;12.18;100.00;95326.97;5084394;28;20007;-82
2023/04/01 12:33:28;;;;;;;;;;;;;;;12.37;100.00;95338.94;5101160;28;19921;-82
2023/04/01 12:36:00;;;;;;;;;;;;;;;12.39;98.94;95329.50;5085696;28;19920;-82
2023/04/01 12:38:32;;;;;;;;;;;;;;;12.56;99.81;95333.88;5086056;28;19928;-82
2023/04/01 12:41:13;;;;;;;;;;;;;;;12.60;95.98;95326.81;5086726;28;19920;-83
2023/04/01 12:43:59;;;;;;;;;;;;;;;12.65;96.03;95333.09;5085721;28;19920;-82
2023/04/01 12:46:32;;;;;;;;;;;;;;;12.74;97.45;95320.66;5089570;28;19977;-82
2023/04/01 12:49:11;;;;;;;;;;;;;;;12.90;95.00;95332.31;5084897;28;19919;-82
2023/04/01 12:51:44;;;;;;;;;;;;;;;12.95;92.33;95340.44;5075528;28;19921;-82
2023/04/01 12:54:38;;;;;;;;;;;;;;;12.85;90.88;95352.06;5070639;28;19921;-83
2023/04/01 12:57:17;;;;;;;;;;;;;;;12.63;91.18;95347.97;5053299;28;20016;-83
2023/04/01 12:59:56;;;;;;;;;;;;;;;12.49;91.83;95353.91;5081280;28;19974;-82
2023/04/01 13:02:32;;;;;;;;;;;;;;;12.42;94.05;95363.31;5083844;28;19920;-82
2023/04/01 13:05:26;;;;;;;;;;;;;;;12.38;92.43;95364.94;5085397;28;19924;-83
2023/04/01 13:08:07;;;;;;;;;;;;;;;12.28;90.07;95371.13;5086498;28;19920;-82
2023/04/01 13:10:49;;;;;;;;;;;;;;;12.29;90.86;95369.25;5074632;28;19927;-82
2023/04/01 13:13:33;;;;;;;;;;;;;;;12.25;88.24;95354.63;5079352;28;19962;-82
2023/04/01 13:16:05;;;;;;;;;;;;;;;12.20;89.02;95341.88;5086163;28;19935;-82
2023/04/01 13:18:39;;;;;;;;;;;;;;;12.20;87.01;95338.34;5088275;28;19959;-82
2023/04/01 13:21:13;;;;;;;;;;;;;;;12.29;86.26;95353.00;5076971;28;19927;-82
2023/04/01 13:23:50;;;;;;;;;;;;;;;12.29;85.23;95363.81;5086877;28;19934;-82